Pilgrims Knob, Virginia
Current Conditions -  °F | °C
As of 7:15 PM on Friday 28 Nov 2014 (Local Time) from KJFZ Reporting Station
Overcast Overcast  
Wind Chill: 32°   Ceiling: 10000
Heat Index: 32°   Visibility: 10mi
Dew Point: 22°   Wind: 3mph
Humidity: 67%   Direction: 170°S
Pressure: 30.19"   Gusts: NA
Location:  37.25°N, 81.92°W
Report Text: KJFZ 290015Z AUTO 17003KT 10SM OVC100 00/M05 A3019 RMK AO2 T10011055
Loading
Personal Weather Stations






























Interactive Weather Map New forecast layout! Learn more

10-Day Weather Forecast

Advertisements
Track Severe Weather on mobile